Time;durP1;ratioP1;P1;durP2;ratioP2;P2;SDS_P1;SDS_P2;PMS_P1;PMS_P2;Temp;Humidity;BMP_temperature;BMP_pressure;BME280_temperature;BME280_humidity;BME280_pressure;Samples;Min_cycle;Max_cycle;Signal;HPM_P1;HPM_P2
2023/04/28 09:21:55;;;;;;;5.65;3.40;;;;;;;11.84;100.00;96271.03;2085830;28;20559;-57
2023/04/28 09:24:29;;;;;;;4.15;3.05;;;;;;;11.83;100.00;96265.91;2092773;27;20560;-57
2023/04/28 09:25:31;;;;;;;6.15;3.38;;;;;;;11.96;100.00;96272.19;2089608;28;20208;-57
2023/04/28 09:26:49;;;;;;;4.47;2.88;;;;;;;12.15;100.00;96279.84;2086952;28;20584;-57
2023/04/28 09:27:52;;;;;;;5.55;3.33;;;;;;;12.23;100.00;96280.22;2074252;28;20263;-57
2023/04/28 09:29:10;;;;;;;4.10;2.80;;;;;;;12.26;100.00;96276.59;2070816;28;20239;-57
2023/04/28 09:30:12;;;;;;;3.67;2.35;;;;;;;12.31;100.00;96274.56;2065969;28;20221;-57
2023/04/28 09:32:35;;;;;;;6.60;2.63;;;;;;;12.41;100.00;96280.94;2084183;28;20565;-57
2023/04/28 09:33:36;;;;;;;4.43;3.20;;;;;;;12.44;100.00;96272.06;2077873;28;20197;-58
2023/04/28 09:34:44;;;;;;;3.65;2.25;;;;;;;12.57;100.00;96278.28;2078741;28;20287;-57
2023/04/28 09:35:47;;;;;;;4.70;2.28;;;;;;;12.69;100.00;96278.50;2079381;28;20200;-57
2023/04/28 09:36:48;;;;;;;2.38;2.13;;;;;;;12.90;100.00;96279.84;2075363;28;20226;-57
2023/04/28 09:37:57;;;;;;;3.60;2.05;;;;;;;12.96;100.00;96283.03;2075410;28;20232;-58
2023/04/28 09:39:00;;;;;;;3.08;2.13;;;;;;;12.97;100.00;96269.81;2071571;28;20568;-57
2023/04/28 09:40:07;;;;;;;3.00;1.80;;;;;;;13.24;100.00;96274.31;2074132;28;20200;-57
2023/04/28 09:41:09;;;;;;;3.03;1.55;;;;;;;13.21;100.00;96279.78;2073255;28;20267;-58
2023/04/28 09:42:29;;;;;;;3.33;2.13;;;;;;;13.19;99.77;96272.00;2065403;28;20637;-57
2023/04/28 09:43:33;;;;;;;3.20;2.10;;;;;;;13.20;100.00;96275.44;2062892;28;20692;-57
2023/04/28 09:44:35;;;;;;;4.15;2.40;;;;;;;13.28;100.00;96277.59;2061400;28;20206;-58
2023/04/28 09:45:41;;;;;;;2.75;1.63;;;;;;;13.26;99.99;96280.31;2058811;28;20236;-57
2023/04/28 09:46:46;;;;;;;2.35;1.50;;;;;;;13.11;99.66;96265.53;2057443;28;20223;-57
2023/04/28 09:47:48;;;;;;;2.25;1.70;;;;;;;13.23;100.00;96270.88;2062952;28;20241;-57
2023/04/28 09:48:59;;;;;;;2.40;1.60;;;;;;;13.13;100.00;96274.13;2066166;28;20198;-57
2023/04/28 09:50:08;;;;;;;2.63;1.80;;;;;;;13.13;100.00;96274.13;2062628;28;20204;-58
2023/04/28 09:51:09;;;;;;;6.38;1.90;;;;;;;13.08;100.00;96274.44;2060992;28;20291;-58
2023/04/28 09:53:28;;;;;;;5.32;1.85;;;;;;;13.20;100.00;96263.22;2083214;28;20603;-57
2023/04/28 09:54:32;;;;;;;3.88;2.10;;;;;;;13.41;100.00;96272.47;2082429;28;20587;-59
2023/04/28 09:55:35;;;;;;;2.63;1.80;;;;;;;13.55;100.00;96277.72;2083437;28;20205;-59
2023/04/28 09:56:41;;;;;;;2.95;1.73;;;;;;;13.80;99.88;96273.53;2080177;28;20199;-60
2023/04/28 09:57:44;;;;;;;4.35;1.83;;;;;;;13.80;100.00;96274.41;2075839;28;20196;-59
2023/04/28 09:58:51;;;;;;;3.15;1.40;;;;;;;13.99;99.06;96274.06;2075179;28;20205;-59
2023/04/28 09:59:53;;;;;;;3.38;2.15;;;;;;;14.18;98.79;96278.09;2072629;28;20201;-60
2023/04/28 10:00:56;;;;;;;2.70;1.63;;;;;;;14.23;99.04;96272.56;2074203;28;20224;-60
2023/04/28 10:01:58;;;;;;;6.72;1.60;;;;;;;14.23;98.66;96264.69;2070452;28;20853;-60
2023/04/28 10:03:08;;;;;;;5.63;1.23;;;;;;;14.41;99.23;96276.63;2072685;28;20297;-60
2023/04/28 10:04:11;;;;;;;1.83;1.10;;;;;;;14.37;98.64;96277.75;2074679;28;20194;-59
2023/04/28 10:05:15;;;;;;;1.27;0.95;;;;;;;14.33;99.72;96271.00;2072740;28;20197;-60
2023/04/28 10:20:21;;;;;;;1.10;0.63;;;;;;;14.16;98.25;96283.47;2083322;28;20900;-58
2023/04/28 10:21:25;;;;;;;1.48;0.80;;;;;;;14.02;98.53;96252.03;2078458;28;20224;-58
2023/04/28 10:23:55;;;;;;;1.05;0.75;;;;;;;14.17;98.09;96274.66;2084517;28;20557;-58
2023/04/28 10:25:12;;;;;;;1.00;0.70;;;;;;;14.18;97.47;96280.72;2080539;28;20197;-58
2023/04/28 10:26:20;;;;;;;1.00;0.70;;;;;;;14.11;97.06;96274.22;2086752;28;20309;-58
2023/04/28 10:27:29;;;;;;;1.10;0.70;;;;;;;14.07;96.08;96273.56;2072826;28;20233;-58
2023/04/28 10:28:30;;;;;;;1.50;0.70;;;;;;;14.09;96.35;96276.09;2072028;28;20275;-57
2023/04/28 10:29:32;;;;;;;1.08;0.70;;;;;;;14.10;96.49;96268.09;2070022;28;20236;-58
2023/04/28 10:30:34;;;;;;;1.10;0.80;;;;;;;14.25;96.71;96284.66;2069708;28;20238;-58
2023/04/28 10:31:36;;;;;;;1.20;0.75;;;;;;;14.37;96.52;96283.00;2070641;28;20197;-58
2023/04/28 10:32:37;;;;;;;4.07;1.00;;;;;;;14.36;94.83;96255.91;2072704;28;20841;-58
2023/04/28 10:33:40;;;;;;;1.10;0.70;;;;;;;14.57;94.29;96267.72;2069786;28;20286;-58
2023/04/28 10:34:42;;;;;;;0.90;0.68;;;;;;;14.48;93.39;96272.63;2068761;28;20205;-58
2023/04/28 10:35:46;;;;;;;1.00;0.65;;;;;;;14.50;92.36;96270.75;2072114;28;20221;-58
2023/04/28 10:36:49;;;;;;;1.80;0.73;;;;;;;14.49;92.98;96263.81;2073365;28;20229;-58
2023/04/28 10:38:08;;;;;;;3.35;0.80;;;;;;;14.62;93.30;96274.34;2070336;28;20206;-58
2023/04/28 10:39:11;;;;;;;1.10;0.60;;;;;;;14.71;93.45;96265.03;2073480;28;20232;-58
2023/04/28 10:40:38;;;;;;;1.52;0.63;;;;;;;14.77;93.95;96275.13;2070212;28;20228;-58
2023/04/28 10:41:40;;;;;;;1.30;1.00;;;;;;;14.76;92.14;96267.34;2071186;28;20416;-58
2023/04/28 10:42:53;;;;;;;1.40;1.10;;;;;;;14.74;91.50;96279.75;2073043;28;20259;-58
2023/04/28 10:43:54;;;;;;;2.50;1.40;;;;;;;14.78;92.29;96279.44;2068778;28;20197;-58
2023/04/28 10:44:55;;;;;;;2.10;1.05;;;;;;;14.77;91.40;96274.31;2070729;28;20202;-58
2023/04/28 10:45:59;;;;;;;0.93;0.60;;;;;;;14.67;91.43;96279.31;2071031;28;20669;-58
2023/04/28 10:47:06;;;;;;;1.10;0.80;;;;;;;14.83;92.48;96271.22;2071260;28;20682;-59
2023/04/28 10:48:08;;;;;;;1.10;0.60;;;;;;;14.97;91.72;96280.81;2071662;28;20209;-58
2023/04/28 10:49:09;;;;;;;2.40;0.98;;;;;;;15.09;92.14;96281.78;2070464;28;20204;-59
2023/04/28 10:50:11;;;;;;;2.35;1.00;;;;;;;15.31;91.03;96281.13;2071348;28;20197;-58
2023/04/28 10:51:15;;;;;;;2.72;1.00;;;;;;;15.65;90.33;96278.75;2072611;28;20202;-59
2023/04/28 10:52:32;;;;;;;1.65;1.02;;;;;;;15.41;89.80;96279.53;2071917;28;20688;-59
2023/04/28 10:53:45;;;;;;;2.00;0.80;;;;;;;15.43;89.52;96277.66;2072243;28;20196;-58
2023/04/28 10:55:25;;;;;;;8.23;0.80;;;;;;;15.49;90.47;96281.63;2071489;28;20244;-59
2023/04/28 10:56:27;;;;;;;1.48;0.90;;;;;;;15.27;89.86;96275.22;2069899;28;20229;-59
2023/04/28 10:57:28;;;;;;;1.63;0.80;;;;;;;15.01;87.88;96277.88;2070957;28;20190;-59
2023/04/28 10:58:31;;;;;;;1.58;0.80;;;;;;;14.93;88.99;96277.56;2070802;28;20604;-58
2023/04/28 10:59:32;;;;;;;1.75;1.00;;;;;;;14.99;89.34;96276.31;2072115;28;20286;-59
2023/04/28 11:00:34;;;;;;;1.63;0.90;;;;;;;15.14;89.76;96280.50;2072138;28;20237;-59
2023/04/28 11:01:35;;;;;;;1.70;1.08;;;;;;;15.19;90.52;96281.03;2077840;28;20721;-58
2023/04/28 11:02:39;;;;;;;1.63;0.80;;;;;;;15.11;89.33;96277.25;2077763;28;20201;-59
2023/04/28 11:03:48;;;;;;;1.50;0.95;;;;;;;15.05;88.77;96283.78;2067895;28;20300;-58
2023/04/28 11:05:12;;;;;;;1.10;0.70;;;;;;;14.85;88.26;96262.31;2071078;28;20193;-58
2023/04/28 11:06:40;;;;;;;1.98;0.80;;;;;;;14.88;87.63;96268.31;2071584;28;20201;-59
2023/04/28 11:08:20;;;;;;;1.60;0.70;;;;;;;15.04;87.78;96278.63;2070596;28;20272;-58
2023/04/28 11:09:31;;;;;;;2.78;0.73;;;;;;;15.23;88.13;96280.81;2072177;28;20319;-58
2023/04/28 11:11:10;;;;;;;1.33;0.75;;;;;;;15.31;86.92;96274.09;2070311;28;20206;-58
2023/04/28 11:12:12;;;;;;;3.38;0.85;;;;;;;15.32;87.21;96275.75;2070100;28;20703;-58
2023/04/28 11:13:33;;;;;;;1.10;0.80;;;;;;;15.27;87.26;96269.97;2071441;28;20198;-58
2023/04/28 11:14:36;;;;;;;1.23;0.77;;;;;;;15.31;86.94;96271.47;2070887;28;20284;-59
2023/04/28 11:15:38;;;;;;;1.20;0.77;;;;;;;15.34;87.26;96279.13;2070818;28;20202;-59
2023/04/28 11:16:58;;;;;;;1.05;0.70;;;;;;;15.15;84.28;96271.66;2069568;28;20221;-59
2023/04/28 11:18:03;;;;;;;1.70;1.10;;;;;;;15.24;87.00;96272.00;2072498;28;20676;-58
2023/04/28 11:19:11;;;;;;;1.58;0.95;;;;;;;15.19;86.24;96262.63;2072524;28;20224;-64
2023/04/28 11:20:14;;;;;;;2.35;1.02;;;;;;;15.35;86.92;96280.00;2070595;28;20240;-65
2023/04/28 11:21:16;;;;;;;1.48;0.88;;;;;;;15.32;86.68;96269.66;2070920;28;21029;-65
2023/04/28 11:22:20;;;;;;;1.23;0.70;;;;;;;15.34;84.70;96273.03;2070191;28;20257;-64
2023/04/28 11:23:27;;;;;;;3.10;1.02;;;;;;;15.24;85.47;96266.75;2073275;28;20229;-64
2023/04/28 11:24:30;;;;;;;1.20;0.75;;;;;;;15.35;85.21;96274.72;2073184;28;20197;-64
2023/04/28 11:25:54;;;;;;;2.33;1.00;;;;;;;15.38;85.50;96265.78;2071034;28;20204;-64
2023/04/28 11:29:14;;;;;;;1.80;0.90;;;;;;;15.43;86.61;96282.91;2101113;27;20594;-64
2023/04/28 11:31:21;;;;;;;1.73;1.00;;;;;;;15.47;86.09;96271.22;2103975;27;20558;-65
2023/04/28 11:39:07;;;;;;;2.15;0.98;;;;;;;15.08;87.22;96278.28;2086043;28;20566;-64
2023/04/28 11:40:10;;;;;;;1.23;0.70;;;;;;;15.09;86.42;96279.16;2082750;28;20196;-64
2023/04/28 11:41:12;;;;;;;2.10;0.60;;;;;;;15.13;87.57;96277.97;2085106;28;20246;-64
2023/04/28 11:43:35;;;;;;;4.40;1.05;;;;;;;15.10;86.81;96258.00;2099973;27;20574;-64
2023/04/28 11:44:52;;;;;;;3.35;0.80;;;;;;;15.10;87.36;96247.47;2098705;28;20203;-65
2023/04/28 11:45:53;;;;;;;1.45;1.00;;;;;;;15.33;87.18;96276.59;2099015;28;20255;-64
2023/04/28 11:46:59;;;;;;;1.65;0.80;;;;;;;15.42;86.88;96278.59;2085002;28;20313;-64
2023/04/28 11:48:19;;;;;;;4.00;0.70;;;;;;;15.34;86.51;96254.63;2081090;28;20201;-64
2023/04/28 11:49:26;;;;;;;3.42;0.75;;;;;;;15.51;86.40;96271.84;2083247;28;20237;-64
2023/04/28 11:50:36;;;;;;;6.07;0.90;;;;;;;15.57;86.44;96274.03;2082659;28;20239;-64
2023/04/28 11:51:38;;;;;;;3.08;0.80;;;;;;;15.63;86.19;96265.72;2084642;28;20258;-64
2023/04/28 11:52:52;;;;;;;2.03;0.70;;;;;;;15.65;85.84;96266.44;2091558;28;20196;-65
2023/04/28 11:54:18;;;;;;;38.97;19.60;;;;;;;15.72;84.65;96268.63;2090161;28;20344;-64
2023/04/28 11:55:20;;;;;;;6.05;3.30;;;;;;;15.77;85.66;96262.09;2090744;28;20904;-65
2023/04/28 11:56:22;;;;;;;6.13;1.67;;;;;;;15.84;85.35;96259.88;2087828;28;20605;-59
2023/04/28 11:57:24;;;;;;;2.95;1.00;;;;;;;16.06;85.07;96260.97;2089011;28;20187;-58
2023/04/28 11:58:26;;;;;;;3.10;1.15;;;;;;;16.20;83.85;96267.84;2087690;28;20196;-58
2023/04/28 11:59:33;;;;;;;1.00;0.68;;;;;;;16.33;82.79;96263.38;2090405;28;20223;-58
2023/04/28 12:00:34;;;;;;;1.23;0.70;;;;;;;16.53;81.46;96261.03;2089108;28;20193;-58
2023/04/28 12:01:52;;;;;;;3.30;0.80;;;;;;;16.77;80.75;96261.00;2088354;28;20575;-59
2023/04/28 12:02:54;;;;;;;1.90;0.90;;;;;;;16.75;79.89;96250.56;2091001;28;20245;-59
2023/04/28 12:03:56;;;;;;;1.75;1.00;;;;;;;16.79;80.89;96256.44;2107837;28;20246;-58
2023/04/28 12:05:06;;;;;;;1.20;0.73;;;;;;;16.71;80.26;96229.81;2105112;28;20191;-58
2023/04/28 12:06:11;;;;;;;2.42;0.90;;;;;;;16.85;80.22;96255.13;2089440;28;20204;-59
2023/04/28 12:07:17;;;;;;;1.25;0.88;;;;;;;17.02;80.85;96248.63;2088641;28;20234;-59
2023/04/28 12:08:28;;;;;;;1.10;0.80;;;;;;;16.98;79.80;96253.28;2090116;28;20658;-58
2023/04/28 12:09:31;;;;;;;1.88;0.93;;;;;;;17.00;78.12;96255.78;2090823;28;20750;-59
2023/04/28 12:10:32;;;;;;;2.50;0.80;;;;;;;16.91;77.97;96266.09;2087111;28;20319;-58
2023/04/28 12:11:34;;;;;;;1.58;0.75;;;;;;;16.86;76.88;96246.28;2089889;28;20234;-58
2023/04/28 12:12:35;;;;;;;3.72;0.93;;;;;;;16.88;77.82;96255.75;2089939;28;20207;-59
2023/04/28 12:13:40;;;;;;;1.63;0.80;;;;;;;16.87;76.82;96255.88;2089691;28;20674;-58
2023/04/28 12:14:56;;;;;;;2.25;1.00;;;;;;;16.84;77.83;96259.59;2087079;28;20203;-60
2023/04/28 12:16:00;;;;;;;1.75;1.00;;;;;;;16.68;76.96;96256.44;2089934;28;20666;-60
2023/04/28 12:17:03;;;;;;;3.83;0.90;;;;;;;16.52;77.93;96254.09;2089608;28;20307;-60
2023/04/28 12:18:11;;;;;;;1.38;0.70;;;;;;;16.43;78.12;96242.44;2087091;28;20207;-60
2023/04/28 12:19:14;;;;;;;1.80;0.70;;;;;;;16.36;78.80;96260.50;2088105;28;20209;-60
2023/04/28 12:20:37;;;;;;;2.38;0.70;;;;;;;16.41;78.50;96263.63;2090622;28;20691;-60
2023/04/28 12:21:40;;;;;;;3.05;0.80;;;;;;;16.22;78.35;96256.25;2089748;28;20215;-60
2023/04/28 12:22:46;;;;;;;1.25;0.75;;;;;;;16.20;78.25;96266.09;2087089;28;20207;-60
2023/04/28 12:23:47;;;;;;;6.13;0.80;;;;;;;16.18;78.20;96257.44;2088143;28;20251;-60
2023/04/28 12:25:09;;;;;;;1.95;0.80;;;;;;;16.06;78.55;96264.47;2091274;28;20275;-60
2023/04/28 12:26:11;;;;;;;1.23;0.68;;;;;;;16.04;79.42;96255.00;2088844;28;20635;-60
2023/04/28 12:27:15;;;;;;;2.75;0.85;;;;;;;16.07;80.00;96260.84;2087904;28;20960;-60
2023/04/28 12:28:16;;;;;;;2.05;1.40;;;;;;;16.07;79.75;96263.47;2105326;28;20649;-60
2023/04/28 12:29:41;;;;;;;1.50;1.00;;;;;;;16.04;78.83;96269.00;2106441;28;20234;-60
2023/04/28 12:30:43;;;;;;;1.65;1.00;;;;;;;16.09;78.81;96266.84;2089290;28;20574;-60
2023/04/28 12:31:51;;;;;;;2.28;0.85;;;;;;;16.11;78.25;96262.31;2088526;28;20224;-60
2023/04/28 12:32:54;;;;;;;2.40;1.55;;;;;;;16.30;79.04;96260.97;2091545;28;20200;-60
2023/04/28 12:33:56;;;;;;;3.47;1.85;;;;;;;16.41;79.28;96258.38;2090643;28;20311;-59
2023/04/28 12:34:58;;;;;;;8.30;5.10;;;;;;;16.44;78.44;96263.44;2090560;28;20204;-60
2023/04/28 12:36:00;;;;;;;31.60;17.10;;;;;;;16.43;78.60;96252.97;2086886;28;20338;-60
2023/04/28 12:37:04;;;;;;;13.52;9.05;;;;;;;16.53;79.24;96259.28;2086729;28;20227;-59
2023/04/28 12:38:10;;;;;;;2.30;1.45;;;;;;;16.54;78.00;96268.00;2090564;28;20222;-59
2023/04/28 12:39:18;;;;;;;1.95;0.90;;;;;;;16.40;77.61;96266.41;2090253;28;20226;-59
2023/04/28 12:40:20;;;;;;;1.50;0.95;;;;;;;16.30;77.88;96264.44;2090036;28;20200;-58
2023/04/28 12:41:23;;;;;;;2.00;0.75;;;;;;;16.25;77.57;96263.09;2089243;28;20197;-59
2023/04/28 12:42:25;;;;;;;2.97;0.77;;;;;;;16.21;77.21;96261.66;2087608;28;20256;-61
2023/04/28 12:43:28;;;;;;;1.83;0.80;;;;;;;16.18;76.75;96262.72;2087343;28;20258;-59
2023/04/28 12:44:34;;;;;;;1.90;1.10;;;;;;;16.24;77.47;96261.41;2089440;28;20249;-59
2023/04/28 12:45:36;;;;;;;1.10;0.80;;;;;;;16.20;76.88;96259.97;2090352;28;20200;-59
2023/04/28 12:46:39;;;;;;;6.20;1.20;;;;;;;16.25;78.02;96258.69;2091086;28;20228;-60
2023/04/28 12:47:41;;;;;;;2.97;0.90;;;;;;;16.24;77.95;96258.78;2088592;28;20204;-59
2023/04/28 12:48:42;;;;;;;1.20;0.63;;;;;;;16.23;77.15;96257.13;2091684;28;20233;-59
2023/04/28 12:49:44;;;;;;;1.40;0.77;;;;;;;16.22;77.36;96258.91;2091493;28;20191;-59
2023/04/28 12:50:46;;;;;;;4.03;1.63;;;;;;;16.36;76.78;96257.88;2090498;28;20200;-59
2023/04/28 12:51:47;;;;;;;2.00;1.10;;;;;;;16.44;76.30;96246.75;2089799;28;20433;-59
2023/04/28 12:52:49;;;;;;;5.15;0.90;;;;;;;16.46;75.80;96248.31;2086457;28;20366;-59
2023/04/28 12:53:50;;;;;;;2.15;0.80;;;;;;;16.59;76.50;96250.03;2087312;28;20808;-59
2023/04/28 12:54:51;;;;;;;1.73;0.95;;;;;;;16.75;75.83;96247.94;2083272;28;20220;-59
2023/04/28 12:55:53;;;;;;;3.00;1.10;;;;;;;16.76;75.18;96233.81;2085460;28;20201;-58
2023/04/28 12:56:55;;;;;;;2.30;0.80;;;;;;;16.84;73.89;96245.56;2082706;28;20591;-59
2023/04/28 12:57:56;;;;;;;1.40;0.95;;;;;;;16.89;73.61;96238.97;2085246;28;20689;-59
2023/04/28 12:58:58;;;;;;;5.97;1.00;;;;;;;17.00;73.92;96234.69;2082079;28;20197;-59
2023/04/28 13:00:00;;;;;;;4.95;1.10;;;;;;;17.03;73.39;96231.84;2083590;28;20238;-59
2023/04/28 13:01:01;;;;;;;2.42;0.98;;;;;;;17.04;73.48;96212.41;2084672;28;20223;-59
2023/04/28 13:02:02;;;;;;;5.05;1.60;;;;;;;17.01;72.84;96200.28;2085126;28;20228;-59
2023/04/28 13:03:04;;;;;;;2.10;0.90;;;;;;;17.12;72.80;96202.94;2081375;28;20193;-59
2023/04/28 13:04:05;;;;;;;1.65;0.70;;;;;;;17.09;72.59;96207.59;2098150;28;20204;-59
2023/04/28 13:05:08;;;;;;;1.42;0.82;;;;;;;17.23;72.22;96219.72;2100783;28;20195;-59
2023/04/28 13:06:09;;;;;;;1.63;0.65;;;;;;;17.12;71.53;96210.00;2084851;28;20254;-59
2023/04/28 13:07:12;;;;;;;1.10;0.70;;;;;;;17.19;71.93;96223.56;2080366;28;20233;-59
2023/04/28 13:08:13;;;;;;;1.00;0.70;;;;;;;17.33;73.18;96227.75;2081485;28;20193;-59
2023/04/28 13:09:15;;;;;;;1.33;0.80;;;;;;;17.54;72.48;96228.69;2086016;28;20707;-59
2023/04/28 13:10:17;;;;;;;1.40;0.70;;;;;;;17.68;73.08;96238.16;2082492;28;20197;-59
2023/04/28 13:11:19;;;;;;;1.17;0.80;;;;;;;17.69;72.71;96231.91;2081226;28;20731;-60
2023/04/28 13:12:23;;;;;;;1.00;0.70;;;;;;;17.74;74.62;96240.31;2085437;28;20225;-60
2023/04/28 13:13:25;;;;;;;1.10;0.60;;;;;;;17.82;73.21;96231.78;2083829;28;20640;-59
2023/04/28 13:14:27;;;;;;;1.10;0.60;;;;;;;17.83;70.75;96230.81;2085400;28;20200;-59
2023/04/28 13:15:30;;;;;;;1.10;0.60;;;;;;;17.86;72.41;96242.94;2084167;28;20204;-60
2023/04/28 13:16:31;;;;;;;1.10;0.70;;;;;;;17.63;71.40;96235.88;2080202;28;20197;-60
2023/04/28 13:17:33;;;;;;;1.20;0.70;;;;;;;17.65;72.53;96246.34;2083696;28;20200;-59
2023/04/28 13:18:35;;;;;;;2.05;0.77;;;;;;;17.62;72.63;96244.78;2081075;28;20201;-59
2023/04/28 13:19:38;;;;;;;1.67;0.63;;;;;;;17.38;71.73;96237.00;2081368;28;20231;-59
2023/04/28 13:20:39;;;;;;;1.35;0.70;;;;;;;17.46;72.21;96236.41;2081088;28;20208;-59
2023/04/28 13:21:41;;;;;;;2.42;0.70;;;;;;;17.53;72.54;96228.81;2080704;28;20244;-59
2023/04/28 13:22:43;;;;;;;1.70;0.80;;;;;;;17.42;72.39;96233.16;2084146;28;20296;-59
2023/04/28 13:23:44;;;;;;;1.63;0.80;;;;;;;17.40;72.75;96231.59;2080991;28;20208;-59
2023/04/28 13:24:49;;;;;;;2.33;0.88;;;;;;;17.36;72.63;96232.81;2081529;28;20208;-59
2023/04/28 13:25:51;;;;;;;1.30;0.60;;;;;;;17.19;71.64;96231.47;2083771;28;20466;-59
2023/04/28 13:26:52;;;;;;;1.38;0.70;;;;;;;16.95;71.84;96233.25;2082101;28;20224;-59
2023/04/28 13:27:54;;;;;;;1.10;0.63;;;;;;;16.80;72.31;96235.25;2085397;28;20205;-59
2023/04/28 13:28:55;;;;;;;1.40;0.60;;;;;;;16.68;72.87;96227.44;2085114;28;20197;-60
2023/04/28 13:29:58;;;;;;;1.42;0.73;;;;;;;16.63;72.17;96233.03;2080900;28;20537;-59
2023/04/28 13:30:59;;;;;;;0.90;0.60;;;;;;;16.60;73.19;96234.09;2081889;28;20204;-59
2023/04/28 13:38:12;;;;;;;1.25;0.60;;;;;;;16.44;76.65;96228.31;2081849;28;20558;-58
2023/04/28 13:39:14;;;;;;;1.13;0.70;;;;;;;16.40;77.41;96225.06;2079728;28;20225;-58
2023/04/28 13:40:15;;;;;;;2.97;0.70;;;;;;;16.36;76.52;96228.06;2080855;28;20695;-58
2023/04/28 13:41:17;;;;;;;1.10;0.70;;;;;;;16.35;78.02;96231.66;2078422;28;20193;-58
2023/04/28 13:44:26;;;;;;;2.15;0.70;;;;;;;16.33;81.60;96229.97;2084020;28;20568;-58
2023/04/28 14:16:57;;;;;;;1.00;0.63;;;;;;;15.08;86.13;96212.56;2093434;27;20565;-58
2023/04/28 14:17:59;;;;;;;2.25;0.70;;;;;;;15.05;86.29;96225.09;2089305;28;20213;-60
2023/04/28 14:19:00;;;;;;;1.63;0.70;;;;;;;15.06;87.27;96227.63;2088943;28;20208;-61
2023/04/28 14:20:03;;;;;;;2.28;0.60;;;;;;;15.05;87.23;96225.09;2087797;28;20212;-60
2023/04/28 14:21:07;;;;;;;1.10;0.80;;;;;;;15.15;87.76;96219.06;2090045;28;20200;-61
2023/04/28 14:22:08;;;;;;;2.50;0.85;;;;;;;15.23;88.28;96222.97;2088303;28;20247;-61
2023/04/28 14:23:10;;;;;;;1.35;0.80;;;;;;;15.30;87.66;96219.78;2088735;28;20197;-61
2023/04/28 14:24:11;;;;;;;1.20;0.70;;;;;;;15.43;88.09;96211.03;2087544;28;20193;-61
2023/04/28 14:25:13;;;;;;;1.10;0.70;;;;;;;15.37;86.43;96212.31;2087836;28;20196;-61
2023/04/28 14:26:14;;;;;;;1.77;0.70;;;;;;;15.33;86.71;96216.94;2084443;28;20201;-61
2023/04/28 14:29:49;;;;;;;1.73;0.80;;;;;;;15.37;88.15;96216.75;2085192;28;20558;-59
2023/04/28 14:30:52;;;;;;;2.83;0.90;;;;;;;15.34;87.89;96218.63;2083797;28;20197;-58
2023/04/28 14:31:54;;;;;;;1.80;0.65;;;;;;;15.34;86.91;96216.00;2077223;28;20304;-58
2023/04/28 14:35:21;;;;;;;1.10;0.60;;;;;;;15.28;86.12;96199.81;2102440;27;20553;-58
2023/04/28 14:55:04;;;;;;;2.00;0.70;;;;;;;15.18;87.44;96196.97;2085286;28;20572;-59
